Time;durP1;ratioP1;P1;durP2;ratioP2;P2;SDS_P1;SDS_P2;PMS_P1;PMS_P2;Temp;Humidity;BMP_temperature;BMP_pressure;BME280_temperature;BME280_humidity;BME280_pressure;Samples;Min_cycle;Max_cycle;Signal;HPM_P1;HPM_P2
2022/11/17 00:01:36;;;;;;;;;;;7.80;99.90;;;;;;5107446;28;20083;-70
2022/11/17 00:04:01;;;;;;;;;;;7.80;99.90;;;;;;5090638;28;20010;-71
2022/11/17 00:06:27;;;;;;;;;;;7.80;99.90;;;;;;5108281;28;19969;-71
2022/11/17 00:08:52;;;;;;;;;;;7.80;99.90;;;;;;5109060;28;20308;-70
2022/11/17 00:11:19;;;;;;;;;;;7.80;99.90;;;;;;5108056;28;20034;-70
2022/11/17 00:16:28;;;;;;;;;;;7.80;99.90;;;;;;5089712;28;19920;-71
2022/11/17 00:21:38;;;;;;;;;;;7.80;99.90;;;;;;5108363;28;20045;-70
2022/11/17 00:24:04;;;;;;;;;;;7.90;99.90;;;;;;5107428;28;20018;-71
2022/11/17 00:26:31;;;;;;;;;;;7.90;99.90;;;;;;5107975;28;19977;-71
2022/11/17 00:28:57;;;;;;;;;;;7.90;99.90;;;;;;5108432;28;19923;-71
2022/11/17 00:34:12;;;;;;;;;;;7.90;99.90;;;;;;5101177;28;20003;-70
2022/11/17 00:36:39;;;;;;;;;;;7.90;99.90;;;;;;5090362;28;20753;-71
2022/11/17 00:39:05;;;;;;;;;;;7.90;99.90;;;;;;5108901;28;19970;-70
2022/11/17 00:41:31;;;;;;;;;;;7.90;99.90;;;;;;5107293;28;19920;-71
2022/11/17 00:43:57;;;;;;;;;;;7.90;99.90;;;;;;5108075;28;19923;-71
2022/11/17 00:46:22;;;;;;;;;;;7.80;99.90;;;;;;5107523;28;20388;-70
2022/11/17 00:48:48;;;;;;;;;;;7.90;99.90;;;;;;5089919;28;20515;-70
2022/11/17 00:51:14;;;;;;;;;;;7.80;99.90;;;;;;5107776;28;20010;-70
2022/11/17 00:53:39;;;;;;;;;;;7.80;99.90;;;;;;5108310;28;20380;-71
2022/11/17 00:56:06;;;;;;;;;;;7.80;99.90;;;;;;5106526;28;19980;-71
2022/11/17 00:58:33;;;;;;;;;;;7.80;99.90;;;;;;5089847;28;19924;-70
2022/11/17 01:00:59;;;;;;;;;;;7.80;99.90;;;;;;5108034;28;20010;-71
2022/11/17 01:03:24;;;;;;;;;;;7.80;99.90;;;;;;5107658;28;20740;-70
2022/11/17 01:05:50;;;;;;;;;;;7.80;99.90;;;;;;5107249;28;20006;-70
2022/11/17 01:08:15;;;;;;;;;;;7.80;99.90;;;;;;5087804;28;19923;-70
2022/11/17 01:10:41;;;;;;;;;;;7.80;99.90;;;;;;5107499;28;20438;-70
2022/11/17 01:13:06;;;;;;;;;;;7.80;99.90;;;;;;5090804;28;19919;-71
2022/11/17 01:15:32;;;;;;;;;;;7.80;99.90;;;;;;5111343;28;19920;-71
2022/11/17 01:17:58;;;;;;;;;;;7.80;99.90;;;;;;5093959;28;19969;-71
2022/11/17 01:20:23;;;;;;;;;;;7.80;99.90;;;;;;5111755;28;19924;-70
2022/11/17 01:22:49;;;;;;;;;;;7.80;99.90;;;;;;5090105;28;19923;-70
2022/11/17 01:25:14;;;;;;;;;;;7.90;99.90;;;;;;5089133;28;19924;-70
2022/11/17 01:27:40;;;;;;;;;;;7.90;99.90;;;;;;5090067;28;19927;-71
2022/11/17 01:30:06;;;;;;;;;;;7.90;99.90;;;;;;5089861;28;19928;-70
2022/11/17 01:32:31;;;;;;;;;;;7.90;99.90;;;;;;5091479;28;20336;-71
2022/11/17 01:34:57;;;;;;;;;;;7.90;99.90;;;;;;5091773;28;20007;-70
2022/11/17 01:37:23;;;;;;;;;;;7.90;99.90;;;;;;5090833;28;19973;-70
2022/11/17 01:39:49;;;;;;;;;;;7.90;99.90;;;;;;5091133;28;19924;-70
2022/11/17 01:42:20;;;;;;;;;;;7.90;99.90;;;;;;5090150;28;19919;-71
2022/11/17 01:44:59;;;;;;;;;;;7.90;99.90;;;;;;5099606;28;19923;-71
2022/11/17 01:47:31;;;;;;;;;;;7.90;99.90;;;;;;5089641;28;20011;-71
2022/11/17 01:49:59;;;;;;;;;;;7.90;99.90;;;;;;5091510;28;19924;-71
2022/11/17 01:52:25;;;;;;;;;;;7.80;99.90;;;;;;5090410;28;19973;-71
2022/11/17 01:54:51;;;;;;;;;;;7.80;99.90;;;;;;5090186;28;19920;-71
2022/11/17 01:57:20;;;;;;;;;;;7.80;99.90;;;;;;5087950;28;19935;-71
2022/11/17 01:59:50;;;;;;;;;;;7.80;99.90;;;;;;5089284;28;19923;-71
2022/11/17 02:02:16;;;;;;;;;;;7.80;99.90;;;;;;5089263;28;20006;-71
2022/11/17 02:04:43;;;;;;;;;;;7.80;99.90;;;;;;5089534;28;20014;-71
2022/11/17 02:07:29;;;;;;;;;;;7.80;99.90;;;;;;5089547;28;19919;-71
2022/11/17 02:09:55;;;;;;;;;;;7.80;99.90;;;;;;5090699;28;20437;-70
2022/11/17 02:12:23;;;;;;;;;;;7.80;99.90;;;;;;5090409;28;19919;-71
2022/11/17 02:14:49;;;;;;;;;;;7.80;99.90;;;;;;5089487;28;19920;-71
2022/11/17 02:17:15;;;;;;;;;;;7.80;99.90;;;;;;5089492;28;19924;-71
2022/11/17 02:19:42;;;;;;;;;;;7.80;99.90;;;;;;5088878;28;20297;-71
2022/11/17 02:22:23;;;;;;;;;;;7.80;99.90;;;;;;5087635;28;19927;-71
2022/11/17 02:25:09;;;;;;;;;;;7.80;99.90;;;;;;5098771;28;19920;-70
2022/11/17 02:27:34;;;;;;;;;;;7.70;99.90;;;;;;5065336;28;19924;-71
2022/11/17 02:30:02;;;;;;;;;;;7.70;99.90;;;;;;5089061;28;19978;-71
2022/11/17 02:32:43;;;;;;;;;;;7.70;99.90;;;;;;5088133;28;19924;-71
2022/11/17 02:35:14;;;;;;;;;;;7.70;99.90;;;;;;5090266;28;19920;-70
2022/11/17 02:37:48;;;;;;;;;;;7.70;99.90;;;;;;5087514;28;19931;-70
2022/11/17 02:40:20;;;;;;;;;;;7.70;99.90;;;;;;5068727;28;19927;-71
2022/11/17 02:45:35;;;;;;;;;;;7.70;99.90;;;;;;5082081;28;19966;-71
2022/11/17 02:48:04;;;;;;;;;;;7.70;99.90;;;;;;5090230;28;19920;-71
2022/11/17 02:50:29;;;;;;;;;;;7.70;99.90;;;;;;5088823;28;19935;-71
2022/11/17 02:52:55;;;;;;;;;;;7.70;99.90;;;;;;5089853;28;19920;-70
2022/11/17 02:55:21;;;;;;;;;;;7.70;99.90;;;;;;5089192;28;20807;-70
2022/11/17 02:57:48;;;;;;;;;;;7.70;99.90;;;;;;5089877;28;19924;-69
2022/11/17 03:00:15;;;;;;;;;;;7.70;99.90;;;;;;5089570;28;19920;-69
2022/11/17 03:02:49;;;;;;;;;;;7.60;99.90;;;;;;5089953;28;19935;-69
2022/11/17 03:05:21;;;;;;;;;;;7.60;99.90;;;;;;5080476;28;19928;-70
2022/11/17 03:07:48;;;;;;;;;;;7.60;99.90;;;;;;5086798;28;19930;-69
2022/11/17 03:10:16;;;;;;;;;;;7.60;99.90;;;;;;5088309;28;19920;-69
2022/11/17 03:13:05;;;;;;;;;;;7.60;99.90;;;;;;5089535;28;19971;-70
2022/11/17 03:15:49;;;;;;;;;;;7.60;99.90;;;;;;5076087;28;19969;-70
2022/11/17 03:18:14;;;;;;;;;;;7.60;99.90;;;;;;5089449;28;19920;-69
2022/11/17 03:20:44;;;;;;;;;;;7.50;99.90;;;;;;5088443;28;19930;-69
2022/11/17 03:23:16;;;;;;;;;;;7.50;99.90;;;;;;5099261;28;19928;-70
2022/11/17 03:25:44;;;;;;;;;;;7.50;99.90;;;;;;5109326;28;20104;-69
2022/11/17 03:28:10;;;;;;;;;;;7.50;99.90;;;;;;5109755;28;20381;-70
2022/11/17 03:30:38;;;;;;;;;;;7.50;99.90;;;;;;5108702;28;19920;-69
2022/11/17 03:33:07;;;;;;;;;;;7.50;99.90;;;;;;5107517;28;20387;-69
2022/11/17 03:35:35;;;;;;;;;;;7.50;99.90;;;;;;5111281;27;19923;-69
2022/11/17 03:38:05;;;;;;;;;;;7.50;99.90;;;;;;5106948;28;19927;-70
2022/11/17 03:40:32;;;;;;;;;;;7.40;99.90;;;;;;5106581;28;20424;-70
2022/11/17 03:42:59;;;;;;;;;;;7.40;99.90;;;;;;5109775;28;19927;-69
2022/11/17 03:45:28;;;;;;;;;;;7.40;99.90;;;;;;5108238;28;20285;-69
2022/11/17 03:48:00;;;;;;;;;;;7.40;99.90;;;;;;5109784;28;19923;-69
2022/11/17 03:50:29;;;;;;;;;;;7.30;99.90;;;;;;5108894;28;19919;-69
2022/11/17 03:52:55;;;;;;;;;;;7.30;99.90;;;;;;5109160;28;20006;-69
2022/11/17 03:55:22;;;;;;;;;;;7.30;99.90;;;;;;5107274;28;20041;-69
2022/11/17 03:57:53;;;;;;;;;;;7.30;99.90;;;;;;5108530;28;19947;-70
2022/11/17 04:00:19;;;;;;;;;;;7.30;99.90;;;;;;5106034;27;19920;-69
2022/11/17 04:02:46;;;;;;;;;;;7.30;99.90;;;;;;5091160;28;19924;-70
2022/11/17 04:05:12;;;;;;;;;;;7.30;99.90;;;;;;5108972;27;19920;-70
2022/11/17 04:07:39;;;;;;;;;;;7.20;99.90;;;;;;5090845;28;20304;-70
2022/11/17 04:10:05;;;;;;;;;;;7.20;99.90;;;;;;5106633;28;19919;-70
2022/11/17 04:17:59;;;;;;;;;;;7.20;99.90;;;;;;5109182;28;20550;-70
2022/11/17 04:20:25;;;;;;;;;;;7.20;99.90;;;;;;5106919;28;19930;-70
2022/11/17 04:23:06;;;;;;;;;;;7.10;99.90;;;;;;5108651;28;19955;-69
2022/11/17 04:28:38;;;;;;;;;;;7.10;99.90;;;;;;5106830;28;20261;-70
2022/11/17 04:31:09;;;;;;;;;;;7.10;99.90;;;;;;5102921;28;20030;-70
2022/11/17 04:33:38;;;;;;;;;;;7.10;99.90;;;;;;5100063;28;19950;-70
2022/11/17 04:36:04;;;;;;;;;;;7.00;99.90;;;;;;5097528;28;19920;-70
2022/11/17 04:38:30;;;;;;;;;;;7.00;99.90;;;;;;5091807;27;19923;-70
2022/11/17 04:43:44;;;;;;;;;;;7.00;99.90;;;;;;5105129;28;19932;-69
2022/11/17 04:46:10;;;;;;;;;;;6.90;99.90;;;;;;5107425;28;19939;-70
2022/11/17 04:48:35;;;;;;;;;;;6.90;99.90;;;;;;5106292;28;20305;-69
2022/11/17 04:51:01;;;;;;;;;;;6.90;99.90;;;;;;5108102;28;19924;-69
2022/11/17 04:53:28;;;;;;;;;;;6.90;99.90;;;;;;5102373;28;20350;-70
2022/11/17 04:55:58;;;;;;;;;;;6.90;99.90;;;;;;5107414;28;19951;-69
2022/11/17 04:58:24;;;;;;;;;;;6.90;99.90;;;;;;5108112;28;19915;-71
2022/11/17 05:00:49;;;;;;;;;;;6.80;99.90;;;;;;5084712;28;19973;-70
2022/11/17 05:03:15;;;;;;;;;;;6.80;99.90;;;;;;5108170;28;19923;-70
2022/11/17 05:05:43;;;;;;;;;;;6.80;99.90;;;;;;5105504;28;19920;-70
2022/11/17 05:08:08;;;;;;;;;;;6.80;99.90;;;;;;5107983;28;19926;-70
2022/11/17 05:13:21;;;;;;;;;;;6.80;99.90;;;;;;5108207;28;19927;-69
2022/11/17 05:18:38;;;;;;;;;;;6.70;99.90;;;;;;5107101;28;20346;-70
2022/11/17 05:21:05;;;;;;;;;;;6.70;99.90;;;;;;5107252;28;19923;-70
2022/11/17 05:26:15;;;;;;;;;;;6.70;99.90;;;;;;5107363;28;20269;-70
2022/11/17 05:28:40;;;;;;;;;;;6.70;99.90;;;;;;5107912;28;19950;-70
2022/11/17 05:31:06;;;;;;;;;;;6.60;99.90;;;;;;5108174;28;19927;-70
2022/11/17 05:33:32;;;;;;;;;;;6.60;99.90;;;;;;5106860;28;19927;-70
2022/11/17 05:35:57;;;;;;;;;;;6.60;99.90;;;;;;5107710;28;20418;-70
2022/11/17 05:38:23;;;;;;;;;;;6.60;99.90;;;;;;5106140;28;19930;-70
2022/11/17 05:40:48;;;;;;;;;;;6.60;99.90;;;;;;5106831;28;19967;-69
2022/11/17 05:43:14;;;;;;;;;;;6.60;99.90;;;;;;5108302;28;19920;-69
2022/11/17 05:45:39;;;;;;;;;;;6.60;99.90;;;;;;5107394;28;19923;-70
2022/11/17 05:48:05;;;;;;;;;;;6.60;99.90;;;;;;5107858;28;20377;-70
2022/11/17 05:50:31;;;;;;;;;;;6.60;99.90;;;;;;5107762;28;19919;-70
2022/11/17 05:52:56;;;;;;;;;;;6.60;99.90;;;;;;5107409;28;20430;-69
2022/11/17 05:55:22;;;;;;;;;;;6.60;99.90;;;;;;5107283;28;19928;-70
2022/11/17 05:57:48;;;;;;;;;;;6.60;99.90;;;;;;5107560;28;19926;-70
2022/11/17 06:00:13;;;;;;;;;;;6.60;99.90;;;;;;5109907;28;19923;-70
2022/11/17 06:02:46;;;;;;;;;;;6.60;99.90;;;;;;5111167;28;19942;-70
2022/11/17 06:05:12;;;;;;;;;;;6.60;99.90;;;;;;5111917;28;19924;-70
2022/11/17 06:07:37;;;;;;;;;;;6.60;99.90;;;;;;5108585;28;19930;-70
2022/11/17 06:10:03;;;;;;;;;;;6.60;99.90;;;;;;5099029;28;19923;-69
2022/11/17 06:12:29;;;;;;;;;;;6.60;99.90;;;;;;5111641;28;19926;-69
2022/11/17 06:14:54;;;;;;;;;;;6.60;99.90;;;;;;5110493;28;19926;-70
2022/11/17 06:17:32;;;;;;;;;;;6.50;99.90;;;;;;5093410;28;20404;-70
2022/11/17 06:20:04;;;;;;;;;;;6.50;99.90;;;;;;5092951;28;20582;-70
2022/11/17 06:22:30;;;;;;;;;;;6.50;99.90;;;;;;5111125;28;19931;-70
2022/11/17 06:24:56;;;;;;;;;;;6.50;99.90;;;;;;5102508;28;19923;-70
2022/11/17 06:27:24;;;;;;;;;;;6.50;99.90;;;;;;5111448;28;20026;-70
2022/11/17 06:29:50;;;;;;;;;;;6.50;99.90;;;;;;5111109;28;20026;-69
2022/11/17 06:32:17;;;;;;;;;;;6.50;99.90;;;;;;5110787;28;20386;-69
2022/11/17 06:34:44;;;;;;;;;;;6.50;99.90;;;;;;5111005;28;19923;-69
2022/11/17 06:37:10;;;;;;;;;;;6.60;99.90;;;;;;5075917;28;20443;-70
2022/11/17 06:39:35;;;;;;;;;;;6.50;99.90;;;;;;5108970;28;19936;-70
2022/11/17 06:42:01;;;;;;;;;;;6.50;99.90;;;;;;5091075;28;20001;-69
2022/11/17 06:44:26;;;;;;;;;;;6.50;99.90;;;;;;5109933;28;20372;-69
2022/11/17 06:46:52;;;;;;;;;;;6.50;99.90;;;;;;5109305;28;19981;-69
2022/11/17 06:49:18;;;;;;;;;;;6.60;99.90;;;;;;5110228;28;19946;-70
2022/11/17 06:51:43;;;;;;;;;;;6.60;99.90;;;;;;5103333;28;19942;-70
2022/11/17 06:54:11;;;;;;;;;;;6.60;99.90;;;;;;5110544;28;19919;-70
2022/11/17 06:56:36;;;;;;;;;;;6.50;99.90;;;;;;5104931;28;19984;-70
2022/11/17 06:59:02;;;;;;;;;;;6.60;99.90;;;;;;5089976;28;20463;-69
2022/11/17 07:01:27;;;;;;;;;;;6.60;99.90;;;;;;5110240;28;19927;-69
2022/11/17 07:03:53;;;;;;;;;;;6.50;99.90;;;;;;5108732;28;20669;-69
2022/11/17 07:06:19;;;;;;;;;;;6.60;99.90;;;;;;5092051;28;19969;-69
2022/11/17 07:08:45;;;;;;;;;;;6.60;99.90;;;;;;5110045;28;19930;-70
2022/11/17 07:11:12;;;;;;;;;;;6.60;99.90;;;;;;5109303;28;20399;-70
2022/11/17 07:13:38;;;;;;;;;;;6.50;99.90;;;;;;5109609;28;20496;-70
2022/11/17 07:16:10;;;;;;;;;;;6.50;99.90;;;;;;5090329;28;19924;-70
2022/11/17 07:18:36;;;;;;;;;;;6.60;99.90;;;;;;5108395;28;20006;-70
2022/11/17 07:21:03;;;;;;;;;;;6.60;99.90;;;;;;5091650;28;19965;-70
2022/11/17 07:23:29;;;;;;;;;;;6.60;99.90;;;;;;5107693;28;19923;-70
2022/11/17 07:25:55;;;;;;;;;;;6.50;99.90;;;;;;5100584;28;19924;-69
2022/11/17 07:28:20;;;;;;;;;;;6.50;99.90;;;;;;5109252;28;19927;-69
2022/11/17 07:30:46;;;;;;;;;;;6.50;99.90;;;;;;5105587;28;19927;-69
2022/11/17 07:33:12;;;;;;;;;;;6.50;99.90;;;;;;5109073;28;19923;-70
2022/11/17 07:35:38;;;;;;;;;;;6.50;99.90;;;;;;5109610;28;19919;-69
2022/11/17 07:38:03;;;;;;;;;;;6.60;99.90;;;;;;5108856;28;19972;-69
2022/11/17 07:40:29;;;;;;;;;;;6.50;99.90;;;;;;5108585;28;20375;-69
2022/11/17 07:42:54;;;;;;;;;;;6.50;99.90;;;;;;5091020;28;20018;-69
2022/11/17 07:45:22;;;;;;;;;;;6.50;99.90;;;;;;5108638;28;19923;-70
2022/11/17 07:48:02;;;;;;;;;;;6.50;99.90;;;;;;5103050;28;20023;-70
2022/11/17 07:50:27;;;;;;;;;;;6.50;99.90;;;;;;5107143;28;20445;-69
2022/11/17 07:52:54;;;;;;;;;;;6.50;99.90;;;;;;5109305;28;19927;-69
2022/11/17 07:55:20;;;;;;;;;;;6.50;99.90;;;;;;5091000;28;20371;-69
2022/11/17 07:57:45;;;;;;;;;;;6.50;99.90;;;;;;5107894;27;19924;-70
2022/11/17 08:00:12;;;;;;;;;;;6.50;99.90;;;;;;5108703;28;19920;-70
2022/11/17 08:02:39;;;;;;;;;;;6.50;99.90;;;;;;5108580;28;19927;-70
2022/11/17 08:05:04;;;;;;;;;;;6.50;99.90;;;;;;5103517;28;19919;-70
2022/11/17 08:07:30;;;;;;;;;;;6.50;99.90;;;;;;5088614;28;19924;-70
2022/11/17 08:09:56;;;;;;;;;;;6.50;99.90;;;;;;5107533;28;20343;-70
2022/11/17 08:12:22;;;;;;;;;;;6.50;99.90;;;;;;5087911;28;19955;-70
2022/11/17 08:14:47;;;;;;;;;;;6.50;99.90;;;;;;5108400;28;19923;-70
2022/11/17 08:17:13;;;;;;;;;;;6.50;99.90;;;;;;5105330;28;19924;-70
2022/11/17 08:19:39;;;;;;;;;;;6.50;99.90;;;;;;5107770;28;19919;-70
2022/11/17 08:22:04;;;;;;;;;;;6.60;99.90;;;;;;5089368;28;19924;-70
2022/11/17 08:24:30;;;;;;;;;;;6.60;99.90;;;;;;5090107;28;19975;-70
2022/11/17 08:26:55;;;;;;;;;;;6.50;99.90;;;;;;5089288;28;19942;-70
2022/11/17 08:29:21;;;;;;;;;;;6.60;99.90;;;;;;5108065;28;20433;-69
2022/11/17 08:31:46;;;;;;;;;;;6.60;99.90;;;;;;5108354;28;20419;-69
2022/11/17 08:34:12;;;;;;;;;;;6.60;99.90;;;;;;5089161;28;19923;-69
2022/11/17 08:36:38;;;;;;;;;;;6.60;99.90;;;;;;5108672;28;19930;-70
2022/11/17 08:39:05;;;;;;;;;;;6.60;99.90;;;;;;5107277;28;20471;-70
2022/11/17 08:41:31;;;;;;;;;;;6.70;99.90;;;;;;5107530;28;19919;-70
2022/11/17 08:43:56;;;;;;;;;;;6.60;99.90;;;;;;5108383;28;19927;-70
2022/11/17 08:46:22;;;;;;;;;;;6.60;99.90;;;;;;5104580;28;19930;-70
2022/11/17 08:48:48;;;;;;;;;;;6.60;99.90;;;;;;5108261;28;19924;-70
2022/11/17 08:51:13;;;;;;;;;;;6.60;99.90;;;;;;5107662;28;20396;-70
2022/11/17 08:53:39;;;;;;;;;;;6.60;99.90;;;;;;5106130;28;20341;-70
2022/11/17 08:56:10;;;;;;;;;;;6.60;99.90;;;;;;5106844;28;20301;-69
2022/11/17 08:58:42;;;;;;;;;;;6.60;99.90;;;;;;5107948;28;20293;-69
2022/11/17 09:01:09;;;;;;;;;;;6.60;99.90;;;;;;5107429;28;19928;-70
2022/11/17 09:03:34;;;;;;;;;;;6.60;99.90;;;;;;5107576;28;20296;-69
2022/11/17 09:06:01;;;;;;;;;;;6.50;99.90;;;;;;5106987;28;19920;-69
2022/11/17 09:08:27;;;;;;;;;;;6.60;99.90;;;;;;5107621;28;20023;-69
2022/11/17 09:10:52;;;;;;;;;;;6.50;99.90;;;;;;5086481;28;20002;-70
2022/11/17 09:13:18;;;;;;;;;;;6.60;99.90;;;;;;5102087;28;19927;-69
2022/11/17 09:15:43;;;;;;;;;;;6.60;99.90;;;;;;5105875;28;20014;-70
2022/11/17 09:18:09;;;;;;;;;;;6.60;99.90;;;;;;5108379;28;19919;-70
2022/11/17 09:20:34;;;;;;;;;;;6.60;99.90;;;;;;5104502;28;19972;-69
2022/11/17 09:23:01;;;;;;;;;;;6.60;99.90;;;;;;5107444;28;20831;-70
2022/11/17 09:25:27;;;;;;;;;;;6.60;99.90;;;;;;5107542;28;19924;-70
2022/11/17 09:27:52;;;;;;;;;;;6.60;99.90;;;;;;5108052;28;20025;-70
2022/11/17 09:30:21;;;;;;;;;;;6.60;99.90;;;;;;5108026;28;20028;-70
2022/11/17 09:32:50;;;;;;;;;;;6.60;99.90;;;;;;5089646;28;20326;-70
2022/11/17 09:35:17;;;;;;;;;;;6.60;99.90;;;;;;5111462;28;19988;-69
2022/11/17 09:37:43;;;;;;;;;;;6.60;99.90;;;;;;5110481;28;20380;-71
2022/11/17 09:40:18;;;;;;;;;;;6.60;99.90;;;;;;5091768;28;19920;-70
2022/11/17 09:42:44;;;;;;;;;;;6.60;99.90;;;;;;5092304;28;20019;-70
2022/11/17 09:45:19;;;;;;;;;;;6.60;99.90;;;;;;5109447;28;20030;-70
2022/11/17 09:47:54;;;;;;;;;;;6.60;99.90;;;;;;5110015;28;19976;-70
2022/11/17 09:50:24;;;;;;;;;;;6.60;99.90;;;;;;5109589;28;19928;-70
2022/11/17 09:52:59;;;;;;;;;;;6.60;99.90;;;;;;5109761;28;19920;-70
2022/11/17 09:55:27;;;;;;;;;;;6.60;99.90;;;;;;5108942;28;19966;-69
2022/11/17 09:58:05;;;;;;;;;;;6.70;99.90;;;;;;5111329;28;19927;-69
2022/11/17 10:00:32;;;;;;;;;;;6.60;99.90;;;;;;5111094;28;19920;-69
2022/11/17 10:02:58;;;;;;;;;;;6.70;99.90;;;;;;5109379;28;19930;-69
2022/11/17 10:05:28;;;;;;;;;;;6.60;99.90;;;;;;5111814;27;20296;-69
2022/11/17 10:07:55;;;;;;;;;;;6.70;99.90;;;;;;5094579;28;19923;-69
2022/11/17 10:10:28;;;;;;;;;;;6.60;99.90;;;;;;5111270;27;19964;-69
2022/11/17 10:12:57;;;;;;;;;;;6.60;99.90;;;;;;5108136;28;19942;-70
2022/11/17 10:15:32;;;;;;;;;;;6.60;99.90;;;;;;5108141;28;19924;-69
2022/11/17 10:17:57;;;;;;;;;;;6.60;99.90;;;;;;5110812;28;20407;-69
2022/11/17 10:20:23;;;;;;;;;;;6.70;99.90;;;;;;5111393;27;19923;-69
2022/11/17 10:22:50;;;;;;;;;;;6.70;99.90;;;;;;5111902;27;20003;-69
2022/11/17 10:25:37;;;;;;;;;;;6.70;99.90;;;;;;5109258;28;19930;-70
2022/11/17 10:28:04;;;;;;;;;;;6.70;99.90;;;;;;5107084;28;19973;-69
2022/11/17 10:30:30;;;;;;;;;;;6.70;99.90;;;;;;5107219;28;19927;-70
2022/11/17 10:32:56;;;;;;;;;;;6.70;99.90;;;;;;5092000;28;19937;-69
2022/11/17 10:35:23;;;;;;;;;;;6.70;99.90;;;;;;5107805;28;20187;-69
2022/11/17 10:38:02;;;;;;;;;;;6.70;99.90;;;;;;5108903;28;19933;-69
2022/11/17 10:40:29;;;;;;;;;;;6.70;99.90;;;;;;5098518;28;20412;-69
2022/11/17 10:42:56;;;;;;;;;;;6.60;99.90;;;;;;5090574;28;20270;-69
2022/11/17 10:45:22;;;;;;;;;;;6.70;99.90;;;;;;5089578;28;19924;-70
2022/11/17 10:47:48;;;;;;;;;;;6.70;99.90;;;;;;5115931;27;19926;-70
2022/11/17 10:50:13;;;;;;;;;;;6.70;99.90;;;;;;5091017;28;20438;-70
2022/11/17 10:52:39;;;;;;;;;;;6.70;99.90;;;;;;5107132;28;19942;-70
2022/11/17 10:55:18;;;;;;;;;;;6.70;99.90;;;;;;5109046;28;20284;-70
2022/11/17 10:57:46;;;;;;;;;;;6.70;99.90;;;;;;5105902;28;19926;-70
2022/11/17 11:00:41;;;;;;;;;;;6.70;99.90;;;;;;5109982;28;20011;-70
2022/11/17 11:03:16;;;;;;;;;;;6.70;99.90;;;;;;5057595;28;19923;-70
2022/11/17 11:05:59;;;;;;;;;;;6.70;99.90;;;;;;5110014;28;19919;-70
2022/11/17 11:08:33;;;;;;;;;;;6.70;99.90;;;;;;5091518;28;20393;-70
2022/11/17 11:10:59;;;;;;;;;;;6.70;99.90;;;;;;5110110;28;19915;-70
2022/11/17 11:13:29;;;;;;;;;;;6.70;99.90;;;;;;5107424;28;20299;-70
2022/11/17 11:15:54;;;;;;;;;;;6.70;99.90;;;;;;5108599;28;19972;-70
2022/11/17 11:18:20;;;;;;;;;;;6.70;99.90;;;;;;5107322;28;19919;-70
2022/11/17 11:20:52;;;;;;;;;;;6.70;99.90;;;;;;5103797;28;19930;-70
2022/11/17 11:23:33;;;;;;;;;;;6.70;99.90;;;;;;5108267;28;19927;-70
2022/11/17 11:26:07;;;;;;;;;;;6.70;99.90;;;;;;5108528;28;19920;-70
2022/11/17 11:28:41;;;;;;;;;;;6.80;99.90;;;;;;5108609;28;20387;-70
2022/11/17 11:31:18;;;;;;;;;;;6.80;99.90;;;;;;5108421;28;19927;-70
2022/11/17 11:33:48;;;;;;;;;;;6.80;99.90;;;;;;5109126;28;20453;-70
2022/11/17 11:36:14;;;;;;;;;;;6.80;99.90;;;;;;5109943;28;19916;-70
2022/11/17 11:39:00;;;;;;;;;;;6.90;99.90;;;;;;5108819;28;19947;-70
2022/11/17 11:41:41;;;;;;;;;;;6.90;99.90;;;;;;5090711;28;19930;-70
2022/11/17 11:44:17;;;;;;;;;;;6.90;99.90;;;;;;5104822;28;20071;-70
2022/11/17 11:46:50;;;;;;;;;;;7.00;99.90;;;;;;5108600;28;20002;-70
2022/11/17 11:49:32;;;;;;;;;;;7.00;99.90;;;;;;5108473;28;19957;-70
2022/11/17 11:51:58;;;;;;;;;;;7.00;99.90;;;;;;5109144;28;19933;-70
2022/11/17 11:54:35;;;;;;;;;;;7.00;99.90;;;;;;5090157;28;19927;-70
2022/11/17 11:57:01;;;;;;;;;;;7.00;99.90;;;;;;5090732;28;20768;-70
2022/11/17 11:59:59;;;;;;;;;;;7.00;99.90;;;;;;5108608;28;19930;-70
2022/11/17 12:02:36;;;;;;;;;;;7.00;99.90;;;;;;5018437;28;19931;-70
2022/11/17 12:05:17;;;;;;;;;;;7.00;99.90;;;;;;5108539;28;19924;-70
2022/11/17 12:07:54;;;;;;;;;;;7.00;99.90;;;;;;5102194;28;19920;-70
2022/11/17 12:10:39;;;;;;;;;;;7.00;99.90;;;;;;5109411;28;20388;-70
2022/11/17 12:13:05;;;;;;;;;;;7.00;99.90;;;;;;5109071;28;19919;-70
2022/11/17 12:15:32;;;;;;;;;;;7.10;99.90;;;;;;5106367;28;19930;-70
2022/11/17 12:17:58;;;;;;;;;;;7.10;99.90;;;;;;5108733;28;19924;-70
2022/11/17 12:20:45;;;;;;;;;;;7.10;99.90;;;;;;5106489;28;19950;-70
2022/11/17 12:23:13;;;;;;;;;;;7.10;99.90;;;;;;5108081;28;19919;-70
2022/11/17 12:25:46;;;;;;;;;;;7.10;99.90;;;;;;5103299;28;19928;-70
2022/11/17 12:28:26;;;;;;;;;;;7.10;99.90;;;;;;5108573;28;20420;-70
2022/11/17 12:30:53;;;;;;;;;;;7.10;99.90;;;;;;5101332;28;20074;-70
2022/11/17 12:33:19;;;;;;;;;;;7.10;99.90;;;;;;5109246;28;19930;-70
2022/11/17 12:35:45;;;;;;;;;;;7.10;99.90;;;;;;5108310;28;20629;-70
2022/11/17 12:38:16;;;;;;;;;;;7.10;99.90;;;;;;5108972;28;19920;-70
2022/11/17 12:40:45;;;;;;;;;;;7.10;99.90;;;;;;5107169;28;19920;-70
2022/11/17 12:43:14;;;;;;;;;;;7.20;99.90;;;;;;5107069;28;19927;-71
2022/11/17 12:46:04;;;;;;;;;;;7.20;99.90;;;;;;5108491;28;19923;-70
2022/11/17 12:48:34;;;;;;;;;;;7.20;99.90;;;;;;5051624;28;19920;-70
2022/11/17 12:51:06;;;;;;;;;;;7.30;99.90;;;;;;5107181;28;19920;-70
2022/11/17 12:53:47;;;;;;;;;;;7.30;99.90;;;;;;5104670;28;19927;-70
2022/11/17 12:56:31;;;;;;;;;;;7.30;99.90;;;;;;5107794;28;20683;-70
2022/11/17 12:59:10;;;;;;;;;;;7.30;99.90;;;;;;5088692;28;20360;-70
2022/11/17 13:01:36;;;;;;;;;;;7.30;99.90;;;;;;5108209;28;19919;-70
2022/11/17 13:04:07;;;;;;;;;;;7.40;99.90;;;;;;5105340;28;19972;-70
2022/11/17 13:06:33;;;;;;;;;;;7.40;99.90;;;;;;5105638;28;19928;-70
2022/11/17 13:08:58;;;;;;;;;;;7.40;99.90;;;;;;5109346;28;20660;-70
2022/11/17 13:11:24;;;;;;;;;;;7.40;99.90;;;;;;5091317;28;19930;-70
2022/11/17 13:14:05;;;;;;;;;;;7.50;99.90;;;;;;5111316;28;19974;-70
2022/11/17 13:16:31;;;;;;;;;;;7.50;99.90;;;;;;5107295;28;19919;-71
2022/11/17 13:18:56;;;;;;;;;;;7.50;99.90;;;;;;5093806;28;19934;-70
2022/11/17 13:21:25;;;;;;;;;;;7.50;99.90;;;;;;5111793;28;20020;-70
2022/11/17 13:23:51;;;;;;;;;;;7.50;99.90;;;;;;5111170;28;19920;-70
2022/11/17 13:26:21;;;;;;;;;;;7.60;99.90;;;;;;5093397;28;19930;-70
2022/11/17 13:28:48;;;;;;;;;;;7.60;99.90;;;;;;5111681;28;19924;-70
2022/11/17 13:31:22;;;;;;;;;;;7.60;99.90;;;;;;5112191;28;19927;-70
2022/11/17 13:34:00;;;;;;;;;;;7.60;99.90;;;;;;5111124;28;19926;-70
2022/11/17 13:36:26;;;;;;;;;;;7.60;99.90;;;;;;5109296;28;19920;-70
2022/11/17 13:38:53;;;;;;;;;;;7.60;99.90;;;;;;5111721;28;19922;-70
2022/11/17 13:41:20;;;;;;;;;;;7.60;99.90;;;;;;5093751;28;19924;-70
2022/11/17 13:43:47;;;;;;;;;;;7.60;99.90;;;;;;5111922;28;19920;-70
2022/11/17 13:46:13;;;;;;;;;;;7.60;99.90;;;;;;5110859;28;20019;-71
2022/11/17 13:48:40;;;;;;;;;;;7.60;99.90;;;;;;5111898;28;20344;-71
2022/11/17 13:51:16;;;;;;;;;;;7.60;99.90;;;;;;5109613;28;19928;-71
2022/11/17 13:53:43;;;;;;;;;;;7.60;99.90;;;;;;5109424;28;19965;-71
2022/11/17 13:56:27;;;;;;;;;;;7.50;99.90;;;;;;5111088;28;20076;-70
2022/11/17 13:58:53;;;;;;;;;;;7.50;99.90;;;;;;5084372;28;19924;-71
2022/11/17 14:01:21;;;;;;;;;;;7.50;99.90;;;;;;5093795;28;19931;-70
2022/11/17 14:03:47;;;;;;;;;;;7.60;99.90;;;;;;5110754;28;19962;-70
2022/11/17 14:06:13;;;;;;;;;;;7.60;99.90;;;;;;5110707;28;19966;-71
2022/11/17 14:08:39;;;;;;;;;;;7.50;99.90;;;;;;5106240;28;20010;-71
2022/11/17 14:11:08;;;;;;;;;;;7.50;99.90;;;;;;5111425;28;20312;-71
2022/11/17 14:13:50;;;;;;;;;;;7.50;99.90;;;;;;5110487;28;19924;-71
2022/11/17 14:16:33;;;;;;;;;;;7.60;99.90;;;;;;5111242;28;19919;-70
2022/11/17 14:18:59;;;;;;;;;;;7.50;99.90;;;;;;5111121;28;20018;-70
2022/11/17 14:21:24;;;;;;;;;;;7.60;99.90;;;;;;5090408;27;20459;-70
2022/11/17 14:23:59;;;;;;;;;;;7.60;99.90;;;;;;5111772;27;19924;-71
2022/11/17 14:26:24;;;;;;;;;;;7.60;99.90;;;;;;5110339;27;20006;-70
2022/11/17 14:28:50;;;;;;;;;;;7.60;99.90;;;;;;5110001;28;20014;-71
2022/11/17 14:31:16;;;;;;;;;;;7.60;99.90;;;;;;5113044;27;20006;-71
2022/11/17 14:33:42;;;;;;;;;;;7.60;99.90;;;;;;5110140;28;20014;-70
2022/11/17 14:36:12;;;;;;;;;;;7.60;99.90;;;;;;5104358;27;19924;-71
2022/11/17 14:38:37;;;;;;;;;;;7.60;99.90;;;;;;5109059;28;19959;-70
2022/11/17 14:41:03;;;;;;;;;;;7.60;99.90;;;;;;5111636;27;20702;-71
2022/11/17 14:43:28;;;;;;;;;;;7.60;99.90;;;;;;5114431;27;19942;-70
2022/11/17 14:45:54;;;;;;;;;;;7.60;99.90;;;;;;5108003;28;19970;-70
2022/11/17 14:48:21;;;;;;;;;;;7.60;99.90;;;;;;5109611;28;19942;-70
2022/11/17 14:50:46;;;;;;;;;;;7.60;99.90;;;;;;5110081;28;19945;-71
2022/11/17 14:53:12;;;;;;;;;;;7.60;99.90;;;;;;5108703;28;19920;-71
2022/11/17 14:55:37;;;;;;;;;;;7.60;99.90;;;;;;5108886;27;19927;-71
2022/11/17 14:58:03;;;;;;;;;;;7.60;99.90;;;;;;5107409;28;19920;-71
2022/11/17 15:00:29;;;;;;;;;;;7.60;99.90;;;;;;5107406;28;19920;-70
2022/11/17 15:02:54;;;;;;;;;;;7.60;99.90;;;;;;5109967;28;19929;-71
2022/11/17 15:05:22;;;;;;;;;;;7.70;99.90;;;;;;5110208;28;19919;-71
2022/11/17 15:07:47;;;;;;;;;;;7.70;99.90;;;;;;5106910;28;19923;-71
2022/11/17 15:10:13;;;;;;;;;;;7.70;99.90;;;;;;5089370;28;20689;-71